createdAt,value
2017-01-12T00:00:18.423Z,1.6
2017-01-12T00:00:37.069Z,1.5
2017-01-12T00:00:55.703Z,1.5
2017-01-12T00:01:14.341Z,1.5
2017-01-12T00:01:32.980Z,1.5
2017-01-12T00:01:51.618Z,1.5
2017-01-12T00:02:10.276Z,1.4
2017-01-12T00:02:28.917Z,1.4
2017-01-12T00:02:47.554Z,1.4
2017-01-12T00:03:06.198Z,1.4
2017-01-12T00:03:24.834Z,1.4
2017-01-12T00:03:43.510Z,1.3
2017-01-12T00:04:02.146Z,1.3
2017-01-12T00:04:20.796Z,1.3
2017-01-12T00:04:39.435Z,1.3
2017-01-12T00:04:58.081Z,1.2
2017-01-12T00:05:16.720Z,1.2
2017-01-12T00:05:35.356Z,1.2
2017-01-12T00:05:54.003Z,1.2
2017-01-12T00:06:12.647Z,1.2
2017-01-12T00:06:31.294Z,1.2
2017-01-12T00:06:49.942Z,1.2
2017-01-12T00:07:08.578Z,1.2
2017-01-12T00:07:27.218Z,1.3
2017-01-12T00:07:45.858Z,1.3
2017-01-12T00:08:04.497Z,1.3
2017-01-12T00:08:23.133Z,1.3
2017-01-12T00:08:41.778Z,1.3
2017-01-12T00:09:00.415Z,1.2
2017-01-12T00:09:19.058Z,1.2
2017-01-12T00:09:37.694Z,1.2
2017-01-12T00:09:56.333Z,1.2
2017-01-12T00:10:14.998Z,1.2
2017-01-12T00:10:33.645Z,1.3
2017-01-12T00:10:52.285Z,1.3
2017-01-12T00:11:10.919Z,1.3
2017-01-12T00:11:29.551Z,1.3
2017-01-12T00:11:48.189Z,1.3
2017-01-12T00:12:06.828Z,1.3
2017-01-12T00:12:25.465Z,1.3
2017-01-12T00:12:44.102Z,1.3
2017-01-12T00:13:02.743Z,1.3
2017-01-12T00:13:21.380Z,1.4
2017-01-12T00:13:40.054Z,1.4
2017-01-12T00:13:58.694Z,1.4
2017-01-12T00:14:17.332Z,1.4
2017-01-12T00:14:35.970Z,1.4
2017-01-12T00:14:54.607Z,1.4
2017-01-12T00:15:13.256Z,1.4
2017-01-12T00:15:31.908Z,1.4
2017-01-12T00:15:50.545Z,1.4
2017-01-12T00:16:09.182Z,1.4
2017-01-12T00:16:27.815Z,1.5
2017-01-12T00:16:46.450Z,1.5
2017-01-12T00:17:05.122Z,1.5
2017-01-12T00:17:23.767Z,1.5
2017-01-12T00:17:42.404Z,1.5
2017-01-12T00:18:01.046Z,1.5
2017-01-12T00:18:19.693Z,1.5
2017-01-12T00:18:38.332Z,1.5
2017-01-12T00:18:56.969Z,1.5
2017-01-12T00:19:15.619Z,1.5
2017-01-12T00:19:34.258Z,1.5
2017-01-12T00:19:52.904Z,1.5
2017-01-12T00:20:11.545Z,1.5
2017-01-12T00:20:30.202Z,1.6
2017-01-12T00:20:48.841Z,1.6
2017-01-12T00:21:07.479Z,1.6
2017-01-12T00:21:26.125Z,1.6
2017-01-12T00:21:44.763Z,1.6
2017-01-12T00:22:03.444Z,1.7
2017-01-12T00:22:22.076Z,1.7
2017-01-12T00:22:40.714Z,1.7
2017-01-12T00:22:59.355Z,1.7
2017-01-12T00:23:17.992Z,1.7
2017-01-12T00:23:36.636Z,1.7
2017-01-12T00:23:55.273Z,1.7
2017-01-12T00:24:13.920Z,1.7
2017-01-12T00:24:32.563Z,1.7
2017-01-12T00:24:51.211Z,1.7
2017-01-12T00:25:09.866Z,1.7
2017-01-12T00:25:28.500Z,1.7
2017-01-12T00:25:47.139Z,1.7
2017-01-12T00:26:05.785Z,1.7
2017-01-12T00:26:24.426Z,1.8
2017-01-12T00:26:43.071Z,1.8
2017-01-12T00:27:01.708Z,1.8
2017-01-12T00:27:20.351Z,1.8
2017-01-12T00:27:38.989Z,1.8
2017-01-12T00:27:57.630Z,1.8
2017-01-12T00:28:16.265Z,1.8
2017-01-12T00:28:34.941Z,1.7
2017-01-12T00:28:53.580Z,1.7
2017-01-12T00:29:12.216Z,1.7
2017-01-12T00:29:30.857Z,1.7
2017-01-12T00:29:49.492Z,1.7
2017-01-12T00:30:08.136Z,1.7
2017-01-12T00:30:26.778Z,1.7
2017-01-12T00:30:45.423Z,1.7
2017-01-12T00:31:04.059Z,1.7
2017-01-12T00:31:22.699Z,1.7
2017-01-12T00:31:41.340Z,1.7
2017-01-12T00:32:00.029Z,1.7
2017-01-12T00:32:18.665Z,1.7
2017-01-12T00:32:37.302Z,1.7
2017-01-12T00:32:55.949Z,1.7
2017-01-12T00:33:14.589Z,1.7
2017-01-12T00:33:33.234Z,1.7
2017-01-12T00:33:51.875Z,1.7
2017-01-12T00:34:10.509Z,1.7
2017-01-12T00:34:29.152Z,1.8
2017-01-12T00:34:47.795Z,1.8
2017-01-12T00:35:06.438Z,1.8
2017-01-12T00:35:25.115Z,1.8
2017-01-12T00:35:43.748Z,1.8
2017-01-12T00:36:02.388Z,1.8
2017-01-12T00:36:21.024Z,1.8
2017-01-12T00:36:39.670Z,1.8
2017-01-12T00:36:58.344Z,1.8
2017-01-12T00:37:16.982Z,1.8
2017-01-12T00:37:35.621Z,1.8
2017-01-12T00:37:54.258Z,1.8
2017-01-12T00:38:12.895Z,1.8
2017-01-12T00:38:31.535Z,1.8
2017-01-12T00:38:50.173Z,1.8
2017-01-12T00:39:08.824Z,1.7
2017-01-12T00:39:27.464Z,1.7
2017-01-12T00:39:46.103Z,1.7
2017-01-12T00:40:04.748Z,1.7
2017-01-12T00:40:23.403Z,1.7
2017-01-12T00:40:42.047Z,1.8
2017-01-12T00:41:00.694Z,1.8
2017-01-12T00:41:19.331Z,1.8
2017-01-12T00:41:37.967Z,1.8
2017-01-12T00:41:56.610Z,1.8
2017-01-12T00:42:15.250Z,1.8
2017-01-12T00:42:33.905Z,1.8
2017-01-12T00:42:52.540Z,1.8
2017-01-12T00:43:11.180Z,1.9
2017-01-12T00:43:29.853Z,1.9
2017-01-12T00:43:48.494Z,1.9
2017-01-12T00:44:07.137Z,1.9
2017-01-12T00:44:25.778Z,1.9
2017-01-12T00:44:44.413Z,1.9
2017-01-12T00:45:03.048Z,1.9
2017-01-12T00:45:21.686Z,1.9
2017-01-12T00:45:40.325Z,1.9
2017-01-12T00:45:58.961Z,1.9
2017-01-12T00:46:17.595Z,1.9
2017-01-12T00:46:36.228Z,1.8
2017-01-12T00:46:54.908Z,1.8
2017-01-12T00:47:13.555Z,1.8
2017-01-12T00:47:32.199Z,1.9
2017-01-12T00:47:50.841Z,1.9
2017-01-12T00:48:09.479Z,1.9
2017-01-12T00:48:28.125Z,1.9
2017-01-12T00:48:46.767Z,1.9
2017-01-12T00:49:05.405Z,1.9
2017-01-12T00:49:24.043Z,1.9
2017-01-12T00:49:42.678Z,1.9
2017-01-12T00:50:01.321Z,1.9
2017-01-12T00:50:19.992Z,2
2017-01-12T00:50:38.679Z,2
2017-01-12T00:50:57.321Z,2
2017-01-12T00:51:15.955Z,2
2017-01-12T00:51:34.593Z,2
2017-01-12T00:51:53.269Z,2
2017-01-12T00:52:11.906Z,2
2017-01-12T00:52:30.551Z,2
2017-01-12T00:52:49.189Z,2
2017-01-12T00:53:07.828Z,1.9
2017-01-12T00:53:26.472Z,1.9
2017-01-12T00:53:45.123Z,1.9
2017-01-12T00:54:03.760Z,1.9
2017-01-12T00:54:22.441Z,1.9
2017-01-12T00:54:41.081Z,1.9
2017-01-12T00:54:59.736Z,2
2017-01-12T00:55:18.376Z,1.9
2017-01-12T00:55:37.010Z,1.9
2017-01-12T00:55:55.660Z,1.9
2017-01-12T00:56:14.302Z,1.9
2017-01-12T00:56:32.941Z,2
2017-01-12T00:56:51.577Z,2
2017-01-12T00:57:10.219Z,2
2017-01-12T00:57:28.864Z,2
2017-01-12T00:57:47.510Z,2
2017-01-12T00:58:06.156Z,2
2017-01-12T00:58:24.819Z,2
2017-01-12T00:58:43.469Z,1.9
2017-01-12T00:59:02.118Z,2
2017-01-12T00:59:20.762Z,1.9
2017-01-12T00:59:39.397Z,2
2017-01-12T00:59:58.031Z,2
2017-01-12T01:00:16.675Z,2
2017-01-12T01:00:35.315Z,2
2017-01-12T01:00:53.956Z,2
2017-01-12T01:01:12.602Z,2
2017-01-12T01:01:31.237Z,2
2017-01-12T01:01:49.901Z,2
2017-01-12T01:02:08.546Z,2
2017-01-12T01:02:27.191Z,2
2017-01-12T01:02:45.831Z,2
2017-01-12T01:03:04.482Z,2
2017-01-12T01:03:23.121Z,2
2017-01-12T01:03:41.764Z,2
2017-01-12T01:04:00.402Z,2
2017-01-12T01:04:19.040Z,2
2017-01-12T01:04:37.674Z,2
2017-01-12T01:04:56.312Z,2
2017-01-12T01:05:14.993Z,2
2017-01-12T01:05:33.638Z,1.9
2017-01-12T01:05:52.276Z,1.9
2017-01-12T01:06:10.922Z,1.9
2017-01-12T01:06:29.567Z,1.9
2017-01-12T01:06:48.240Z,1.9
2017-01-12T01:07:06.880Z,1.9
2017-01-12T01:07:25.513Z,1.9
2017-01-12T01:07:44.159Z,1.9
2017-01-12T01:08:02.798Z,1.9
2017-01-12T01:08:21.440Z,1.9
2017-01-12T01:08:40.077Z,1.9
2017-01-12T01:08:58.715Z,1.9
2017-01-12T01:09:17.357Z,1.9
2017-01-12T01:09:35.996Z,1.9
2017-01-12T01:09:54.657Z,1.9
2017-01-12T01:10:13.294Z,1.9
2017-01-12T01:10:31.927Z,2
2017-01-12T01:10:50.575Z,2
2017-01-12T01:11:09.219Z,2
2017-01-12T01:11:27.864Z,2
2017-01-12T01:11:46.511Z,2
2017-01-12T01:12:05.161Z,2
2017-01-12T01:12:23.800Z,2
2017-01-12T01:12:42.438Z,2
2017-01-12T01:13:01.083Z,2
2017-01-12T01:13:19.759Z,2
2017-01-12T01:13:38.404Z,2
2017-01-12T01:13:57.062Z,1.9
2017-01-12T01:14:15.702Z,1.9
2017-01-12T01:14:34.342Z,1.9
2017-01-12T01:14:52.979Z,1.9
2017-01-12T01:15:11.616Z,1.9
2017-01-12T01:15:30.257Z,1.9
2017-01-12T01:15:48.897Z,1.8
2017-01-12T01:16:07.531Z,1.8
2017-01-12T01:16:26.170Z,1.8
2017-01-12T01:16:44.842Z,1.8
2017-01-12T01:17:03.481Z,1.8
2017-01-12T01:17:22.130Z,1.7
2017-01-12T01:17:40.765Z,1.7
2017-01-12T01:17:59.403Z,1.7
2017-01-12T01:18:18.053Z,1.7
2017-01-12T01:18:36.694Z,1.7
2017-01-12T01:18:55.337Z,1.7
2017-01-12T01:19:13.971Z,1.7
2017-01-12T01:19:32.608Z,1.7
2017-01-12T01:19:51.260Z,1.7
2017-01-12T01:20:09.923Z,1.7
2017-01-12T01:20:28.563Z,1.7
2017-01-12T01:20:47.198Z,1.7
2017-01-12T01:21:05.835Z,1.7
2017-01-12T01:21:24.475Z,1.6
2017-01-12T01:21:43.171Z,1.6
2017-01-12T01:22:01.819Z,1.6
2017-01-12T01:22:20.461Z,1.6
2017-01-12T01:22:39.100Z,1.6
2017-01-12T01:22:57.738Z,1.5
2017-01-12T01:23:16.375Z,1.5
2017-01-12T01:23:35.016Z,1.4
2017-01-12T01:23:53.651Z,1.4
2017-01-12T01:24:12.303Z,1.3
2017-01-12T01:24:30.951Z,1.2
2017-01-12T01:24:49.612Z,1.2
2017-01-12T01:25:08.252Z,1.2
2017-01-12T01:25:26.919Z,1.2
2017-01-12T01:25:45.557Z,1.2
2017-01-12T01:26:04.196Z,1.3
2017-01-12T01:26:22.833Z,1.3
2017-01-12T01:26:41.465Z,1.2
2017-01-12T01:27:00.121Z,1.2
2017-01-12T01:27:18.767Z,1.2
2017-01-12T01:27:37.407Z,1.2
2017-01-12T01:27:56.042Z,1.1
2017-01-12T01:28:14.709Z,1.1
2017-01-12T01:28:33.354Z,1.2
2017-01-12T01:28:51.996Z,1.2
2017-01-12T01:29:10.639Z,1.2
2017-01-12T01:29:29.279Z,1.3
2017-01-12T01:29:47.919Z,1.3
2017-01-12T01:30:06.560Z,1.4
2017-01-12T01:30:25.203Z,1.4
2017-01-12T01:30:43.846Z,1.4
2017-01-12T01:31:02.480Z,1.5
2017-01-12T01:31:21.119Z,1.5
2017-01-12T01:31:39.799Z,1.5
2017-01-12T01:31:58.438Z,1.6
2017-01-12T01:32:17.076Z,1.6
2017-01-12T01:32:35.713Z,1.6
2017-01-12T01:32:54.348Z,1.7
2017-01-12T01:33:12.990Z,1.7
2017-01-12T01:33:31.660Z,1.7
2017-01-12T01:33:50.298Z,1.7
2017-01-12T01:34:08.937Z,1.7
2017-01-12T01:34:27.584Z,1.7
2017-01-12T01:34:46.226Z,1.7
2017-01-12T01:35:04.882Z,1.7
2017-01-12T01:35:23.524Z,1.7
2017-01-12T01:35:42.160Z,1.7
2017-01-12T01:36:00.800Z,1.7
2017-01-12T01:36:19.440Z,1.8
2017-01-12T01:36:38.113Z,1.8
2017-01-12T01:36:56.750Z,1.8
2017-01-12T01:37:15.398Z,1.8
2017-01-12T01:37:34.036Z,1.8
2017-01-12T01:37:52.672Z,1.8
2017-01-12T01:38:11.304Z,1.8
2017-01-12T01:38:29.945Z,1.8
2017-01-12T01:38:48.587Z,1.8
2017-01-12T01:39:07.232Z,1.8
2017-01-12T01:39:25.872Z,1.8
2017-01-12T01:39:44.534Z,1.8
2017-01-12T01:40:03.186Z,1.7
2017-01-12T01:40:21.823Z,1.7
2017-01-12T01:40:40.468Z,1.7
2017-01-12T01:40:59.103Z,1.7
2017-01-12T01:41:17.745Z,1.7
2017-01-12T01:41:36.383Z,1.6
2017-01-12T01:41:55.019Z,1.6
2017-01-12T01:42:13.657Z,1.6
2017-01-12T01:42:32.297Z,1.6
2017-01-12T01:42:50.930Z,1.6
2017-01-12T01:43:09.599Z,1.6
2017-01-12T01:43:28.237Z,1.5
2017-01-12T01:43:46.880Z,1.5
2017-01-12T01:44:05.522Z,1.5
2017-01-12T01:44:24.161Z,1.5
2017-01-12T01:44:42.806Z,1.5
2017-01-12T01:45:01.444Z,1.5
2017-01-12T01:45:20.094Z,1.5
2017-01-12T01:45:38.736Z,1.5
2017-01-12T01:45:57.379Z,1.5
2017-01-12T01:46:16.020Z,1.5
2017-01-12T01:46:34.698Z,1.5
2017-01-12T01:46:53.334Z,1.5
2017-01-12T01:47:11.968Z,1.6
2017-01-12T01:47:30.613Z,1.5
2017-01-12T01:47:49.253Z,1.6
2017-01-12T01:48:07.897Z,1.6
2017-01-12T01:48:26.541Z,1.6
2017-01-12T01:48:45.177Z,1.6
2017-01-12T01:49:03.827Z,1.6
2017-01-12T01:49:22.475Z,1.7
2017-01-12T01:49:41.112Z,1.7
2017-01-12T01:49:59.777Z,1.7
2017-01-12T01:50:18.412Z,1.7
2017-01-12T01:50:37.062Z,1.7
2017-01-12T01:50:55.707Z,1.7
2017-01-12T01:51:14.341Z,1.7
2017-01-12T01:51:33.022Z,1.7
2017-01-12T01:51:51.658Z,1.7
2017-01-12T01:52:10.300Z,1.7
2017-01-12T01:52:28.935Z,1.7
2017-01-12T01:52:47.571Z,1.7
2017-01-12T01:53:06.208Z,1.7
2017-01-12T01:53:24.851Z,1.6
2017-01-12T01:53:43.495Z,1.6
2017-01-12T01:54:02.138Z,1.6
2017-01-12T01:54:20.777Z,1.6
2017-01-12T01:54:39.421Z,1.6
2017-01-12T01:54:58.093Z,1.6
2017-01-12T01:55:16.732Z,1.5
2017-01-12T01:55:35.369Z,1.5
2017-01-12T01:55:54.012Z,1.5
2017-01-12T01:56:12.650Z,1.5
2017-01-12T01:56:31.301Z,1.5
2017-01-12T01:56:49.959Z,1.5
2017-01-12T01:57:08.598Z,1.4
2017-01-12T01:57:27.230Z,1.4
2017-01-12T01:57:45.866Z,1.4
2017-01-12T01:58:04.535Z,1.4
2017-01-12T01:58:23.178Z,1.4
2017-01-12T01:58:41.819Z,1.4
2017-01-12T01:59:00.454Z,1.4
2017-01-12T01:59:19.099Z,1.4
2017-01-12T01:59:37.753Z,1.3
2017-01-12T01:59:56.394Z,1.3
2017-01-12T02:00:15.038Z,1.3
2017-01-12T02:00:33.681Z,1.2
2017-01-12T02:00:52.324Z,1.3
2017-01-12T02:01:10.969Z,1.2
2017-01-12T02:01:29.649Z,1.2
2017-01-12T02:01:48.283Z,1.2
2017-01-12T02:02:06.920Z,1.2
2017-01-12T02:02:25.560Z,1.2
2017-01-12T02:02:44.199Z,1.2
2017-01-12T02:03:02.843Z,1.2
2017-01-12T02:03:21.486Z,1.2
2017-01-12T02:03:40.118Z,1.2
2017-01-12T02:03:58.765Z,1.2
2017-01-12T02:04:17.428Z,1.2
2017-01-12T02:04:36.069Z,1.2
2017-01-12T02:04:54.739Z,1.2
2017-01-12T02:05:13.375Z,1.2
2017-01-12T02:05:32.017Z,1.2
2017-01-12T02:05:50.656Z,1.2
2017-01-12T02:06:09.294Z,1.2
2017-01-12T02:06:27.981Z,1.1
2017-01-12T02:06:46.617Z,1.1
2017-01-12T02:07:05.263Z,1.1
2017-01-12T02:07:23.906Z,1.2
2017-01-12T02:07:42.547Z,1.2
2017-01-12T02:08:01.183Z,1.2
2017-01-12T02:08:19.815Z,1.2
2017-01-12T02:08:38.453Z,1.2
2017-01-12T02:08:57.089Z,1.2
2017-01-12T02:09:15.728Z,1.2
2017-01-12T02:09:34.377Z,1.2
2017-01-12T02:09:53.026Z,1.2
2017-01-12T02:10:11.668Z,1.2
2017-01-12T02:10:30.306Z,1.2
2017-01-12T02:10:48.947Z,1.2
2017-01-12T02:11:07.588Z,1.3
2017-01-12T02:11:26.220Z,1.3
2017-01-12T02:11:44.857Z,1.3
2017-01-12T02:12:03.498Z,1.3
2017-01-12T02:12:22.139Z,1.3
2017-01-12T02:12:40.801Z,1.4
2017-01-12T02:12:59.459Z,1.4
2017-01-12T02:13:18.106Z,1.4
2017-01-12T02:13:36.742Z,1.5
2017-01-12T02:13:55.387Z,1.5
2017-01-12T02:14:14.021Z,1.5
2017-01-12T02:14:32.656Z,1.6
2017-01-12T02:14:51.300Z,1.6
2017-01-12T02:15:09.943Z,1.6
2017-01-12T02:15:28.585Z,1.7
2017-01-12T02:15:47.223Z,1.7
2017-01-12T02:16:05.864Z,1.7
2017-01-12T02:16:24.537Z,1.7
2017-01-12T02:16:43.185Z,1.7
2017-01-12T02:17:01.831Z,1.7
2017-01-12T02:17:20.472Z,1.7
2017-01-12T02:17:39.117Z,1.7
2017-01-12T02:17:57.756Z,1.7
2017-01-12T02:18:16.395Z,1.7
2017-01-12T02:18:35.038Z,1.7
2017-01-12T02:18:53.675Z,1.8
2017-01-12T02:19:12.312Z,1.8
2017-01-12T02:19:30.962Z,1.8
2017-01-12T02:19:49.640Z,1.8
2017-01-12T02:20:08.279Z,1.8
2017-01-12T02:20:26.923Z,1.7
2017-01-12T02:20:45.563Z,1.7
2017-01-12T02:21:04.201Z,1.7
2017-01-12T02:21:22.871Z,1.7
2017-01-12T02:21:41.518Z,1.7
2017-01-12T02:22:00.171Z,1.6
2017-01-12T02:22:18.811Z,1.6
2017-01-12T02:22:37.446Z,1.5
2017-01-12T02:22:56.083Z,1.5
2017-01-12T02:23:14.717Z,1.5
2017-01-12T02:23:33.356Z,1.5
2017-01-12T02:23:52.016Z,1.5
2017-01-12T02:24:10.659Z,1.5
2017-01-12T02:24:29.304Z,1.5
2017-01-12T02:24:47.965Z,1.5
2017-01-12T02:25:06.613Z,1.5
2017-01-12T02:25:25.250Z,1.5
2017-01-12T02:25:43.891Z,1.5
2017-01-12T02:26:02.531Z,1.5
2017-01-12T02:26:21.163Z,1.5
2017-01-12T02:26:39.806Z,1.5
2017-01-12T02:26:58.444Z,1.5
2017-01-12T02:27:17.095Z,1.5
2017-01-12T02:27:35.755Z,1.5
2017-01-12T02:27:54.429Z,1.5
2017-01-12T02:28:13.067Z,1.5
2017-01-12T02:28:31.706Z,1.6
2017-01-12T02:28:50.351Z,1.6
2017-01-12T02:29:08.987Z,1.6
2017-01-12T02:29:27.632Z,1.6
2017-01-12T02:29:46.281Z,1.7
2017-01-12T02:30:04.923Z,1.7
2017-01-12T02:30:23.561Z,1.7
2017-01-12T02:30:42.200Z,1.7
2017-01-12T02:31:00.838Z,1.7
2017-01-12T02:31:19.513Z,1.8
2017-01-12T02:31:38.151Z,1.8
2017-01-12T02:31:56.787Z,1.8
2017-01-12T02:32:15.436Z,1.8
2017-01-12T02:32:34.096Z,1.8
2017-01-12T02:32:52.743Z,1.8
2017-01-12T02:33:11.373Z,1.8
2017-01-12T02:33:30.008Z,1.8
2017-01-12T02:33:48.645Z,1.8
2017-01-12T02:34:07.284Z,1.8
2017-01-12T02:34:25.926Z,1.8
2017-01-12T02:34:44.588Z,1.8
2017-01-12T02:35:03.224Z,1.8
2017-01-12T02:35:21.905Z,1.8
2017-01-12T02:35:40.545Z,1.8
2017-01-12T02:35:59.188Z,1.8
2017-01-12T02:36:17.860Z,1.8
2017-01-12T02:36:36.507Z,1.8
2017-01-12T02:36:55.144Z,1.7
2017-01-12T02:37:13.783Z,1.7
2017-01-12T02:37:32.422Z,1.7
2017-01-12T02:37:51.061Z,1.7
2017-01-12T02:38:09.699Z,1.7
2017-01-12T02:38:28.344Z,1.7
2017-01-12T02:38:46.989Z,1.7
2017-01-12T02:39:05.634Z,1.7
2017-01-12T02:39:24.281Z,1.7
2017-01-12T02:39:42.946Z,1.7
2017-01-12T02:40:01.594Z,1.7
2017-01-12T02:40:20.233Z,1.7
2017-01-12T02:40:38.873Z,1.7
2017-01-12T02:40:57.520Z,1.7
2017-01-12T02:41:16.160Z,1.7
2017-01-12T02:41:34.804Z,1.7
2017-01-12T02:41:53.451Z,1.7
2017-01-12T02:42:12.084Z,1.8
2017-01-12T02:42:30.726Z,1.8
2017-01-12T02:42:49.402Z,1.8
2017-01-12T02:43:08.054Z,1.8
2017-01-12T02:43:26.688Z,1.8
2017-01-12T02:43:45.331Z,1.8
2017-01-12T02:44:03.969Z,1.8
2017-01-12T02:44:22.606Z,1.8
2017-01-12T02:44:41.249Z,1.8
2017-01-12T02:44:59.896Z,1.8
2017-01-12T02:45:18.557Z,1.8
2017-01-12T02:45:37.203Z,1.8
2017-01-12T02:45:55.845Z,1.8
2017-01-12T02:46:14.511Z,1.8
2017-01-12T02:46:33.173Z,1.8
2017-01-12T02:46:51.818Z,1.8
2017-01-12T02:47:10.458Z,1.8
2017-01-12T02:47:29.094Z,1.8
2017-01-12T02:47:47.761Z,1.8
2017-01-12T02:48:06.397Z,1.8
2017-01-12T02:48:25.051Z,1.8
2017-01-12T02:48:43.693Z,1.8
2017-01-12T02:49:02.327Z,1.8
2017-01-12T02:49:20.964Z,1.8
2017-01-12T02:49:39.603Z,1.8
2017-01-12T02:49:58.239Z,1.8
2017-01-12T02:50:16.879Z,1.8
2017-01-12T02:50:35.517Z,1.8
2017-01-12T02:50:54.159Z,1.8
2017-01-12T02:51:12.846Z,1.8
2017-01-12T02:51:31.486Z,1.8
2017-01-12T02:51:50.121Z,1.8
2017-01-12T02:52:08.756Z,1.8
2017-01-12T02:52:27.403Z,1.8
2017-01-12T02:52:46.046Z,1.8
2017-01-12T02:53:04.689Z,1.8
2017-01-12T02:53:23.325Z,1.8
2017-01-12T02:53:41.963Z,1.8
2017-01-12T02:54:00.616Z,1.8
2017-01-12T02:54:19.275Z,1.8
2017-01-12T02:54:37.915Z,1.8
2017-01-12T02:54:56.548Z,1.8
2017-01-12T02:55:15.182Z,1.8
2017-01-12T02:55:33.819Z,1.8
2017-01-12T02:55:52.457Z,1.7
2017-01-12T02:56:11.094Z,1.7
2017-01-12T02:56:29.744Z,1.7
2017-01-12T02:56:48.384Z,1.8
2017-01-12T02:57:07.027Z,1.8
2017-01-12T02:57:25.669Z,1.8
2017-01-12T02:57:44.339Z,1.8
2017-01-12T02:58:02.973Z,1.8
2017-01-12T02:58:21.610Z,1.8
2017-01-12T02:58:40.257Z,1.7
2017-01-12T02:58:58.917Z,1.7
2017-01-12T02:59:17.556Z,1.7
2017-01-12T02:59:36.199Z,1.7
2017-01-12T02:59:54.835Z,1.7
2017-01-12T03:00:13.480Z,1.7
2017-01-12T03:00:32.123Z,1.7
2017-01-12T03:00:50.761Z,1.7
2017-01-12T03:01:09.425Z,1.7
2017-01-12T03:01:28.059Z,1.7
2017-01-12T03:01:46.705Z,1.7
2017-01-12T03:02:05.344Z,1.7
2017-01-12T03:02:23.982Z,1.7
2017-01-12T03:02:42.621Z,1.7
2017-01-12T03:03:01.264Z,1.7
2017-01-12T03:03:19.905Z,1.7
2017-01-12T03:03:38.553Z,1.7
2017-01-12T03:03:57.199Z,1.7
2017-01-12T03:04:15.845Z,1.7
2017-01-12T03:04:34.506Z,1.7
2017-01-12T03:04:53.150Z,1.7
2017-01-12T03:05:11.793Z,1.7
2017-01-12T03:05:30.431Z,1.7
2017-01-12T03:05:49.066Z,1.7
2017-01-12T03:06:07.746Z,1.7
2017-01-12T03:06:26.386Z,1.7
2017-01-12T03:06:45.027Z,1.7
2017-01-12T03:07:03.666Z,1.8
2017-01-12T03:07:22.308Z,1.8
2017-01-12T03:07:40.947Z,1.8
2017-01-12T03:07:59.592Z,1.8
2017-01-12T03:08:18.239Z,1.8
2017-01-12T03:08:36.873Z,1.8
2017-01-12T03:08:55.513Z,1.8
2017-01-12T03:09:14.168Z,1.8
2017-01-12T03:09:32.819Z,1.8
2017-01-12T03:09:51.463Z,1.8
2017-01-12T03:10:10.101Z,1.8
2017-01-12T03:10:28.735Z,1.8
2017-01-12T03:10:47.377Z,1.8
2017-01-12T03:11:06.018Z,1.8
2017-01-12T03:11:24.657Z,1.8
2017-01-12T03:11:43.293Z,1.8
2017-01-12T03:12:01.927Z,1.8
2017-01-12T03:12:20.567Z,1.8
2017-01-12T03:12:39.239Z,1.8
2017-01-12T03:12:57.883Z,1.8
2017-01-12T03:13:16.519Z,1.8
2017-01-12T03:13:35.154Z,1.8
2017-01-12T03:13:53.796Z,1.8
2017-01-12T03:14:12.439Z,1.8
2017-01-12T03:14:31.088Z,1.8
2017-01-12T03:14:49.730Z,1.9
2017-01-12T03:15:08.363Z,1.9
2017-01-12T03:15:27.016Z,1.8
2017-01-12T03:15:45.664Z,1.9
2017-01-12T03:16:04.333Z,1.8
2017-01-12T03:16:22.967Z,1.8
2017-01-12T03:16:41.601Z,1.8
2017-01-12T03:17:00.242Z,1.8
2017-01-12T03:17:18.883Z,1.8
2017-01-12T03:17:37.531Z,1.8
2017-01-12T03:17:56.174Z,1.8
2017-01-12T03:18:14.817Z,1.8
2017-01-12T03:18:33.461Z,1.8
2017-01-12T03:18:52.104Z,1.8
2017-01-12T03:19:10.746Z,1.8
2017-01-12T03:19:29.410Z,1.8
2017-01-12T03:19:48.049Z,1.8
2017-01-12T03:20:06.689Z,1.8
2017-01-12T03:20:25.325Z,1.8
2017-01-12T03:20:43.957Z,1.8
2017-01-12T03:21:02.637Z,1.8
2017-01-12T03:21:21.276Z,1.8
2017-01-12T03:21:39.917Z,1.8
2017-01-12T03:21:58.556Z,1.8
2017-01-12T03:22:17.190Z,1.8
2017-01-12T03:22:35.845Z,1.8
2017-01-12T03:22:54.492Z,1.8
2017-01-12T03:23:13.131Z,1.8
2017-01-12T03:23:31.764Z,1.8
2017-01-12T03:23:50.400Z,1.8
2017-01-12T03:24:09.065Z,1.8
2017-01-12T03:24:27.719Z,1.8
2017-01-12T03:24:46.361Z,1.8
2017-01-12T03:25:04.995Z,1.9
2017-01-12T03:25:23.638Z,1.9
2017-01-12T03:25:42.276Z,1.9
2017-01-12T03:26:00.917Z,1.9
2017-01-12T03:26:19.586Z,1.9
2017-01-12T03:26:38.222Z,1.9
2017-01-12T03:26:56.864Z,1.8
2017-01-12T03:27:15.504Z,1.8
2017-01-12T03:27:34.177Z,1.8
2017-01-12T03:27:52.809Z,1.8
2017-01-12T03:28:11.446Z,1.8
2017-01-12T03:28:30.088Z,1.8
2017-01-12T03:28:48.723Z,1.8
2017-01-12T03:29:07.363Z,1.8
2017-01-12T03:29:25.997Z,1.8
2017-01-12T03:29:44.634Z,1.8
2017-01-12T03:30:03.277Z,1.8
2017-01-12T03:30:21.917Z,1.8
2017-01-12T03:30:40.577Z,1.7
2017-01-12T03:30:59.246Z,1.7
2017-01-12T03:31:17.889Z,1.8
2017-01-12T03:31:36.529Z,1.8
2017-01-12T03:31:55.169Z,1.8
2017-01-12T03:32:13.804Z,1.8
2017-01-12T03:32:32.444Z,1.8
2017-01-12T03:32:51.088Z,1.8
2017-01-12T03:33:09.732Z,1.8
2017-01-12T03:33:28.369Z,1.8
2017-01-12T03:33:47.012Z,1.8
2017-01-12T03:34:05.649Z,1.8
2017-01-12T03:34:24.319Z,1.8
2017-01-12T03:34:42.956Z,1.8
2017-01-12T03:35:01.601Z,1.8
2017-01-12T03:35:20.243Z,1.8
2017-01-12T03:35:38.877Z,1.8
2017-01-12T03:35:57.528Z,1.8
2017-01-12T03:36:16.165Z,1.7
2017-01-12T03:36:34.807Z,1.7
2017-01-12T03:36:53.449Z,1.7
2017-01-12T03:37:12.085Z,1.7
2017-01-12T03:37:30.733Z,1.7
2017-01-12T03:37:49.389Z,1.7
2017-01-12T03:38:08.035Z,1.7
2017-01-12T03:38:26.678Z,1.7
2017-01-12T03:38:45.314Z,1.7
2017-01-12T03:39:03.950Z,1.7
2017-01-12T03:39:22.627Z,1.7
2017-01-12T03:39:41.263Z,1.7
2017-01-12T03:39:59.902Z,1.7
2017-01-12T03:40:18.538Z,1.7
2017-01-12T03:40:37.174Z,1.7
2017-01-12T03:40:55.816Z,1.7
2017-01-12T03:41:14.462Z,1.7
2017-01-12T03:41:33.100Z,1.7
2017-01-12T03:41:51.734Z,1.7
2017-01-12T03:42:10.368Z,1.7
2017-01-12T03:42:29.030Z,1.7
2017-01-12T03:42:47.668Z,1.6
2017-01-12T03:43:06.305Z,1.6
2017-01-12T03:43:24.945Z,1.7
2017-01-12T03:43:43.586Z,1.7
2017-01-12T03:44:02.229Z,1.7
2017-01-12T03:44:20.865Z,1.7
2017-01-12T03:44:39.502Z,1.7
2017-01-12T03:44:58.137Z,1.7
2017-01-12T03:45:16.784Z,1.7
2017-01-12T03:45:35.428Z,1.6
2017-01-12T03:45:54.094Z,1.6
2017-01-12T03:46:12.737Z,1.6
2017-01-12T03:46:31.373Z,1.6
2017-01-12T03:46:50.011Z,1.6
2017-01-12T03:47:08.649Z,1.6
2017-01-12T03:47:27.290Z,1.6
2017-01-12T03:47:45.933Z,1.6
2017-01-12T03:48:04.577Z,1.6
2017-01-12T03:48:23.223Z,1.6
2017-01-12T03:48:41.861Z,1.6
2017-01-12T03:49:00.500Z,1.6
2017-01-12T03:49:19.162Z,1.6
2017-01-12T03:49:37.811Z,1.6
2017-01-12T03:49:56.473Z,1.6
2017-01-12T03:50:15.113Z,1.6
2017-01-12T03:50:33.748Z,1.6
2017-01-12T03:50:52.394Z,1.6
2017-01-12T03:51:11.063Z,1.6
2017-01-12T03:51:29.704Z,1.6
2017-01-12T03:51:48.365Z,1.6
2017-01-12T03:52:07.000Z,1.5
2017-01-12T03:52:25.642Z,1.5
2017-01-12T03:52:44.296Z,1.5
2017-01-12T03:53:02.941Z,1.5
2017-01-12T03:53:21.579Z,1.5
2017-01-12T03:53:40.217Z,1.5
2017-01-12T03:53:58.857Z,1.5
2017-01-12T03:54:17.531Z,1.5
2017-01-12T03:54:36.170Z,1.5
2017-01-12T03:54:54.805Z,1.5
2017-01-12T03:55:13.452Z,1.5
2017-01-12T03:55:32.093Z,1.5
2017-01-12T03:55:50.733Z,1.5
2017-01-12T03:56:09.375Z,1.5
2017-01-12T03:56:28.026Z,1.5
2017-01-12T03:56:46.669Z,1.5
2017-01-12T03:57:05.314Z,1.5
2017-01-12T03:57:23.970Z,1.5
2017-01-12T03:57:42.612Z,1.5
2017-01-12T03:58:01.256Z,1.5
2017-01-12T03:58:19.896Z,1.5
2017-01-12T03:58:38.536Z,1.5
2017-01-12T03:58:57.173Z,1.5
2017-01-12T03:59:15.806Z,1.6
2017-01-12T03:59:34.439Z,1.6
2017-01-12T03:59:53.085Z,1.6
2017-01-12T04:00:11.758Z,1.6
2017-01-12T04:00:30.397Z,1.6
2017-01-12T04:00:49.058Z,1.5
2017-01-12T04:01:07.701Z,1.5
2017-01-12T04:01:26.348Z,1.5
2017-01-12T04:01:44.989Z,1.5
2017-01-12T04:02:03.623Z,1.4
2017-01-12T04:02:22.272Z,1.4
2017-01-12T04:02:40.909Z,1.4
2017-01-12T04:02:59.549Z,1.4
2017-01-12T04:03:18.186Z,1.3
2017-01-12T04:03:36.823Z,1.3
2017-01-12T04:03:55.460Z,1.2
2017-01-12T04:04:14.131Z,1.2
2017-01-12T04:04:32.770Z,1.2
2017-01-12T04:04:51.409Z,1.1
2017-01-12T04:05:10.045Z,1.1
2017-01-12T04:05:28.692Z,1.1
2017-01-12T04:05:47.334Z,1.1
2017-01-12T04:06:05.971Z,1.1
2017-01-12T04:06:24.609Z,1.1
2017-01-12T04:06:43.248Z,1.1
2017-01-12T04:07:01.890Z,1.2
2017-01-12T04:07:20.532Z,1.1
2017-01-12T04:07:39.205Z,1.2
2017-01-12T04:07:57.844Z,1.2
2017-01-12T04:08:16.484Z,1.2
2017-01-12T04:08:35.128Z,1.3
2017-01-12T04:08:53.765Z,1.3
2017-01-12T04:09:12.446Z,1.3
2017-01-12T04:09:31.082Z,1.3
2017-01-12T04:09:49.727Z,1.3
2017-01-12T04:10:08.372Z,1.3
2017-01-12T04:10:27.015Z,1.3
2017-01-12T04:10:45.653Z,1.3
2017-01-12T04:11:04.291Z,1.3
2017-01-12T04:11:22.934Z,1.3
2017-01-12T04:11:41.576Z,1.3
2017-01-12T04:12:00.216Z,1.3
2017-01-12T04:12:18.861Z,1.3
2017-01-12T04:12:37.511Z,1.3
2017-01-12T04:12:56.154Z,1.3
2017-01-12T04:13:14.791Z,1.3
2017-01-12T04:13:33.430Z,1.3
2017-01-12T04:13:52.066Z,1.3
2017-01-12T04:14:10.711Z,1.3
2017-01-12T04:14:29.354Z,1.3
2017-01-12T04:14:47.999Z,1.3
2017-01-12T04:15:06.644Z,1.3
2017-01-12T04:15:25.284Z,1.3
2017-01-12T04:15:43.995Z,1.3
2017-01-12T04:16:02.637Z,1.3
2017-01-12T04:16:21.278Z,1.3
2017-01-12T04:16:39.925Z,1.3
2017-01-12T04:16:58.566Z,1.2
2017-01-12T04:17:17.216Z,1.2
2017-01-12T04:17:35.854Z,1.2
2017-01-12T04:17:54.493Z,1.2